Hermon, NY (13652)

9:16 PM EDT on July 24, 2016 (GMT -0400)
Jerry and Debbie's weather Sykes Road Canton,NY | | Change Station

Elev 364 ft 44.62 °N, 75.19 °W | Updated 33 seconds ago

Clear
Clear
68.5 °F
Feels Like 68.5 °F
N
0.0
Wind Variable Wind from ESE
Gusts 0.8 mph

Today
High -- | Low -- °F
--% Chance of Precip.
Yesterday
High -- | Low -- °F
Precip. -- in
Pressure 29.97 in
Visibility 10.0 miles
Clouds Clear
Dew Point 57 °F
Humidity 66%
Rainfall 0.00 in
Snow Depth Not available.
5:39 AM 8:34 PM
Waning Gibbous, 71% visible
METAR KMSS 250053Z AUTO 00000KT 10SM CLR 21/16 A2997 RMK AO2 SLP147 T02060156
Pressure 29.97 in
Visibility 10.0 miles
Clouds Clear
Dew Point 57 °F
Humidity 66%
Rainfall 0.00 in
Snow Depth Not available.
5:39 AM 8:34 PM
Waning Gibbous, 71% visible
METAR KMSS 250053Z AUTO 00000KT 10SM CLR 21/16 A2997 RMK AO2 SLP147 T02060156

10-Day Weather Forecast

Almanac

Astronomy

Jul. 24, 2016 Rise Set
Actual Time
Civil Twilight
Nautical Twilight
Astronomical Twilight
Moon
Length of Visible Light
Length of Day
Tomorrow will be .
, % of the Moon is Illuminated

Today's Extremes

State Highs State Lows

Community

WunderPhotos

Upload Photos

1,927,225 photos uploaded!

WunderBlog® & News

Nearby

Air Quality

  Air Quality AQ Index Pollutant
Not available.

Snow Depth

Station Depth Elevation

Earthquake Activity

City Distance Mag. Time & Date
Minimum magnitude displayed is 2.5.

Coastal Water Temperatures

Place Temperature

Stations

Nearby Weather Stations

Station Location Temp. Windchill Dew Point Humidity Wind Precip. Elev Updated Type
                   

Watches & Warnings

There are currently no watches in effect.